Time;durP1;ratioP1;P1;durP2;ratioP2;P2;SDS_P1;SDS_P2;PMS_P1;PMS_P2;Temp;Humidity;BMP_temperature;BMP_pressure;BME280_temperature;BME280_humidity;BME280_pressure;Samples;Min_cycle;Max_cycle;Signal;HPM_P1;HPM_P2
2021/08/07 00:02:20;;;;;;;3.80;2.27;;;19.20;99.90;;;;;;5096444;28;20506;-79
2021/08/07 00:04:47;;;;;;;2.20;1.70;;;19.20;99.90;;;;;;5098894;28;20606;-81
2021/08/07 00:07:14;;;;;;;2.40;1.70;;;19.20;99.90;;;;;;5098475;28;20468;-79
2021/08/07 00:09:41;;;;;;;1.97;1.80;;;19.20;99.90;;;;;;5102121;28;20468;-79
2021/08/07 00:12:07;;;;;;;4.10;1.90;;;19.20;99.90;;;;;;5097175;28;20465;-79
2021/08/07 00:14:36;;;;;;;3.87;1.90;;;19.20;99.90;;;;;;5099182;28;20465;-80
2021/08/07 00:17:03;;;;;;;1.60;1.50;;;19.10;99.90;;;;;;5099319;28;20463;-80
2021/08/07 00:19:30;;;;;;;1.70;1.60;;;19.10;99.90;;;;;;5102406;28;20459;-79
2021/08/07 00:21:58;;;;;;;1.70;1.60;;;19.10;99.90;;;;;;5094462;28;20522;-80
2021/08/07 00:24:24;;;;;;;3.20;1.80;;;19.10;99.90;;;;;;5098372;28;20618;-80
2021/08/07 00:26:51;;;;;;;2.70;1.50;;;19.00;99.90;;;;;;5101640;28;20536;-80
2021/08/07 00:29:18;;;;;;;1.90;1.80;;;19.00;99.90;;;;;;5097812;28;20802;-81
2021/08/07 00:31:46;;;;;;;1.83;1.70;;;19.00;99.90;;;;;;5102270;28;20452;-80
2021/08/07 00:34:13;;;;;;;4.03;1.80;;;19.00;99.90;;;;;;5093618;28;20461;-81
2021/08/07 00:36:40;;;;;;;2.17;1.93;;;19.00;99.90;;;;;;5097653;28;20470;-80
2021/08/07 00:39:07;;;;;;;3.37;1.87;;;19.00;99.90;;;;;;5097819;28;21080;-79
2021/08/07 00:41:34;;;;;;;2.07;1.90;;;19.00;99.90;;;;;;5100959;28;21082;-80
2021/08/07 00:44:01;;;;;;;1.63;1.53;;;19.00;99.90;;;;;;5096093;28;20463;-80
2021/08/07 00:46:28;;;;;;;3.17;2.20;;;18.90;99.90;;;;;;5096708;28;20464;-80
2021/08/07 00:48:56;;;;;;;3.40;1.70;;;18.90;99.90;;;;;;5092473;28;20704;-79
2021/08/07 00:51:23;;;;;;;2.70;2.10;;;18.90;99.90;;;;;;5098843;28;20460;-79
2021/08/07 00:53:50;;;;;;;3.03;1.83;;;18.90;99.90;;;;;;5095713;28;20464;-80
2021/08/07 00:56:17;;;;;;;5.80;1.80;;;18.90;99.90;;;;;;5098606;28;20464;-79
2021/08/07 00:58:43;;;;;;;2.20;2.00;;;18.80;99.90;;;;;;5103452;28;20846;-79
2021/08/07 01:01:14;;;;;;;3.83;2.10;;;18.80;99.90;;;;;;5101618;27;20506;-80
2021/08/07 01:03:46;;;;;;;2.90;1.70;;;18.80;99.90;;;;;;5097797;28;20575;-79
2021/08/07 01:06:27;;;;;;;2.10;1.70;;;18.80;99.90;;;;;;5096823;28;21364;-80
2021/08/07 01:09:03;;;;;;;2.70;1.50;;;18.80;99.90;;;;;;5088775;28;20468;-83
2021/08/07 01:11:39;;;;;;;1.90;1.80;;;18.80;99.90;;;;;;5102173;28;20467;-80
2021/08/07 01:14:08;;;;;;;1.70;1.60;;;18.70;99.90;;;;;;5098246;28;20452;-79
2021/08/07 01:16:39;;;;;;;2.87;1.90;;;18.70;99.90;;;;;;5102114;28;20468;-80
2021/08/07 01:19:14;;;;;;;2.07;1.63;;;18.70;99.90;;;;;;5101625;28;20452;-80
2021/08/07 01:21:48;;;;;;;2.07;1.70;;;18.70;99.90;;;;;;5100488;28;20528;-81
2021/08/07 01:24:23;;;;;;;2.20;2.00;;;18.70;99.90;;;;;;5092042;28;20461;-80
2021/08/07 01:26:54;;;;;;;1.60;1.50;;;18.60;99.90;;;;;;5097470;28;20461;-80
2021/08/07 01:29:24;;;;;;;2.60;1.80;;;18.60;99.90;;;;;;5096704;28;21102;-79
2021/08/07 01:31:53;;;;;;;3.87;1.83;;;18.60;99.90;;;;;;5100217;28;20553;-80
2021/08/07 01:34:21;;;;;;;6.43;1.93;;;18.50;99.90;;;;;;5097408;28;20471;-81
2021/08/07 01:36:49;;;;;;;2.90;1.70;;;18.50;99.90;;;;;;5102776;28;20469;-79
2021/08/07 01:39:16;;;;;;;2.83;1.90;;;18.50;99.90;;;;;;5094881;28;20478;-80
2021/08/07 01:41:43;;;;;;;2.30;2.10;;;18.50;99.90;;;;;;5096948;28;20809;-80
2021/08/07 01:44:11;;;;;;;1.80;1.70;;;18.50;99.90;;;;;;5091134;28;20463;-80
2021/08/07 01:46:45;;;;;;;4.20;1.90;;;18.50;99.90;;;;;;5093525;28;20799;-81
2021/08/07 01:49:15;;;;;;;3.73;1.93;;;18.50;99.90;;;;;;5089930;28;20468;-80
2021/08/07 01:51:46;;;;;;;1.87;1.77;;;18.50;99.90;;;;;;5099119;28;20464;-82
2021/08/07 01:54:16;;;;;;;6.30;2.57;;;18.50;99.90;;;;;;5091522;28;20548;-80
2021/08/07 01:56:45;;;;;;;8.10;2.00;;;18.50;99.90;;;;;;5098371;28;20780;-79
2021/08/07 01:59:15;;;;;;;3.00;1.87;;;18.60;99.90;;;;;;5089218;28;20535;-80
2021/08/07 02:01:47;;;;;;;2.40;2.10;;;18.50;99.90;;;;;;5103975;27;20494;-80
2021/08/07 02:04:15;;;;;;;4.87;2.10;;;18.50;99.90;;;;;;5096403;28;20461;-80
2021/08/07 02:06:42;;;;;;;1.90;1.80;;;18.50;99.90;;;;;;5092266;28;20566;-79
2021/08/07 02:09:10;;;;;;;2.10;1.93;;;18.60;99.90;;;;;;5094479;28;20469;-79
2021/08/07 02:11:38;;;;;;;5.00;2.20;;;18.50;99.90;;;;;;5099747;28;20465;-80
2021/08/07 02:14:06;;;;;;;4.23;1.90;;;18.50;99.90;;;;;;5089562;28;20472;-79
2021/08/07 02:16:35;;;;;;;6.33;1.90;;;18.50;99.90;;;;;;5097641;28;20542;-80
2021/08/07 02:19:03;;;;;;;4.20;2.67;;;18.50;99.90;;;;;;5100063;28;20545;-79
2021/08/07 02:21:31;;;;;;;7.33;3.30;;;18.50;99.90;;;;;;5094955;28;20543;-79
2021/08/07 02:23:58;;;;;;;5.17;2.70;;;18.50;99.90;;;;;;5098146;28;20512;-79
2021/08/07 02:26:28;;;;;;;9.00;2.57;;;18.50;99.90;;;;;;5090529;28;20543;-81
2021/08/07 02:28:56;;;;;;;7.90;2.37;;;18.60;99.90;;;;;;5096622;28;20981;-80
2021/08/07 02:31:24;;;;;;;7.60;2.40;;;18.60;99.90;;;;;;5100635;28;20446;-82
2021/08/07 02:33:52;;;;;;;12.47;2.83;;;18.50;99.90;;;;;;5097596;28;20453;-81
2021/08/07 02:36:21;;;;;;;3.03;2.17;;;18.50;99.90;;;;;;5096234;28;20495;-79
2021/08/07 02:38:49;;;;;;;7.40;2.90;;;18.50;99.90;;;;;;5094331;28;20878;-79
2021/08/07 02:41:17;;;;;;;5.80;2.47;;;18.50;99.90;;;;;;5093896;28;20473;-80
2021/08/07 02:43:44;;;;;;;8.23;2.20;;;18.50;99.90;;;;;;5091944;28;21085;-79
2021/08/07 02:46:12;;;;;;;2.57;2.10;;;18.50;99.90;;;;;;5102137;28;20514;-81
2021/08/07 02:48:40;;;;;;;3.17;2.07;;;18.50;99.90;;;;;;5096555;28;20817;-79
2021/08/07 02:51:07;;;;;;;4.63;2.40;;;18.50;99.90;;;;;;5092377;28;20472;-82
2021/08/07 02:53:36;;;;;;;2.10;1.90;;;18.50;99.90;;;;;;5087742;28;20879;-80
2021/08/07 02:56:03;;;;;;;7.20;2.60;;;18.50;99.90;;;;;;5097979;28;20456;-79
2021/08/07 02:58:31;;;;;;;8.03;2.20;;;18.50;99.90;;;;;;5090850;28;20459;-79
2021/08/07 03:00:58;;;;;;;10.97;2.57;;;18.50;99.90;;;;;;5107319;27;20560;-79
2021/08/07 03:03:25;;;;;;;4.23;2.30;;;18.50;99.90;;;;;;5094281;28;20570;-79
2021/08/07 03:05:52;;;;;;;4.13;2.10;;;18.50;99.90;;;;;;5101957;28;20456;-79
2021/08/07 03:08:19;;;;;;;4.10;2.23;;;18.50;99.90;;;;;;5099630;28;20464;-79
2021/08/07 03:10:49;;;;;;;10.93;2.40;;;18.50;99.90;;;;;;5103590;28;20513;-79
2021/08/07 03:13:16;;;;;;;6.70;2.40;;;18.50;99.90;;;;;;5104302;28;20891;-79
2021/08/07 03:15:44;;;;;;;5.57;1.90;;;18.50;99.90;;;;;;5101324;28;20479;-79
2021/08/07 03:18:11;;;;;;;6.80;2.50;;;18.50;99.90;;;;;;5100529;28;20468;-79
2021/08/07 03:20:38;;;;;;;7.40;2.60;;;18.50;99.90;;;;;;5101499;28;21193;-81
2021/08/07 03:23:06;;;;;;;7.47;2.07;;;18.50;99.90;;;;;;5094985;28;20495;-80
2021/08/07 03:25:35;;;;;;;4.30;2.43;;;18.50;99.90;;;;;;5104609;28;20953;-81
2021/08/07 03:28:04;;;;;;;4.27;2.50;;;18.50;99.90;;;;;;5105446;28;20456;-79
2021/08/07 03:30:31;;;;;;;3.53;2.00;;;18.50;99.90;;;;;;5100743;28;20717;-79
2021/08/07 03:32:58;;;;;;;7.20;2.30;;;18.50;99.90;;;;;;5098719;28;20538;-79
2021/08/07 03:35:25;;;;;;;3.77;2.23;;;18.50;99.90;;;;;;5095200;28;20953;-80
2021/08/07 03:37:53;;;;;;;2.30;2.10;;;18.50;99.90;;;;;;5100135;28;20524;-79
2021/08/07 03:40:20;;;;;;;3.53;2.00;;;18.50;99.90;;;;;;5104733;28;20984;-81
2021/08/07 03:42:48;;;;;;;5.50;3.93;;;18.50;99.90;;;;;;5102836;28;21007;-80
2021/08/07 03:45:16;;;;;;;7.90;2.57;;;18.50;99.90;;;;;;5103983;28;20556;-79
2021/08/07 03:47:45;;;;;;;7.77;2.70;;;18.40;99.90;;;;;;5102178;28;20469;-80
2021/08/07 03:50:13;;;;;;;5.73;2.00;;;18.40;99.90;;;;;;5092240;28;20556;-80
2021/08/07 03:52:40;;;;;;;6.70;2.50;;;18.40;99.90;;;;;;5099798;28;20518;-80
2021/08/07 03:55:09;;;;;;;13.70;2.93;;;18.40;99.90;;;;;;5096855;28;20466;-80
2021/08/07 03:57:55;;;;;;;6.70;2.67;;;18.40;99.90;;;;;;5091277;28;20464;-79
2021/08/07 04:00:25;;;;;;;7.13;2.37;;;18.40;99.90;;;;;;5101104;27;20822;-81
2021/08/07 04:02:52;;;;;;;13.63;2.67;;;18.40;99.90;;;;;;5101298;28;20809;-79
2021/08/07 04:05:20;;;;;;;6.77;2.37;;;18.30;99.90;;;;;;5089826;28;20458;-80
2021/08/07 04:07:47;;;;;;;3.77;2.17;;;18.30;99.90;;;;;;5092158;28;20466;-79
2021/08/07 04:10:16;;;;;;;7.33;3.40;;;18.30;99.90;;;;;;5101047;28;20749;-79
2021/08/07 04:12:43;;;;;;;2.63;2.43;;;18.30;99.90;;;;;;5092673;28;20507;-81
2021/08/07 04:15:12;;;;;;;10.03;2.50;;;18.30;99.90;;;;;;5101280;28;20458;-79
2021/08/07 04:17:40;;;;;;;3.93;2.30;;;18.30;99.90;;;;;;5096832;28;20525;-79
2021/08/07 04:20:10;;;;;;;7.90;3.77;;;18.30;99.90;;;;;;5093170;28;20949;-80
2021/08/07 04:22:37;;;;;;;10.47;3.00;;;18.30;99.90;;;;;;5097625;28;20480;-81
2021/08/07 04:25:06;;;;;;;3.27;2.93;;;18.40;99.90;;;;;;5101789;28;20788;-82
2021/08/07 04:27:33;;;;;;;8.33;2.80;;;18.30;99.90;;;;;;5098145;28;20459;-79
2021/08/07 04:30:00;;;;;;;9.17;3.10;;;18.30;99.90;;;;;;5092051;28;20471;-80
2021/08/07 04:32:26;;;;;;;5.70;3.07;;;18.40;99.90;;;;;;5095821;28;20460;-81
2021/08/07 04:34:55;;;;;;;4.77;2.00;;;18.30;99.90;;;;;;5103145;28;20494;-82
2021/08/07 04:37:22;;;;;;;5.63;3.17;;;18.30;99.90;;;;;;5098503;28;20974;-81
2021/08/07 04:39:49;;;;;;;7.23;3.33;;;18.30;99.90;;;;;;5098962;28;20489;-80
2021/08/07 04:42:19;;;;;;;5.63;2.60;;;18.30;99.90;;;;;;5100239;28;20472;-80
2021/08/07 04:44:46;;;;;;;15.83;3.13;;;18.30;99.90;;;;;;5100174;28;20460;-81
2021/08/07 04:47:13;;;;;;;7.33;2.90;;;18.30;99.90;;;;;;5097809;28;20891;-80
2021/08/07 04:49:40;;;;;;;11.77;2.70;;;18.40;99.90;;;;;;5099926;28;20468;-82
2021/08/07 04:52:09;;;;;;;11.20;2.63;;;18.30;99.90;;;;;;5095459;28;20471;-82
2021/08/07 04:54:36;;;;;;;5.07;2.43;;;18.40;99.90;;;;;;5098954;28;20454;-79
2021/08/07 04:57:03;;;;;;;10.00;2.60;;;18.40;99.90;;;;;;5097696;28;20472;-79
2021/08/07 04:59:30;;;;;;;7.30;3.10;;;18.40;99.90;;;;;;5091831;28;20457;-79
2021/08/07 05:01:57;;;;;;;6.13;3.20;;;18.40;99.90;;;;;;5099247;28;21010;-79
2021/08/07 05:04:25;;;;;;;5.90;2.13;;;18.40;99.90;;;;;;5096999;28;20492;-82
2021/08/07 05:06:51;;;;;;;6.63;2.83;;;18.40;99.90;;;;;;5098143;28;20878;-80
2021/08/07 05:09:20;;;;;;;3.90;2.33;;;18.40;99.90;;;;;;5095613;28;20464;-80
2021/08/07 05:11:48;;;;;;;9.27;2.70;;;18.40;99.90;;;;;;5099673;28;20476;-80
2021/08/07 05:14:15;;;;;;;8.77;2.80;;;18.40;99.90;;;;;;5099216;28;20459;-79
2021/08/07 05:16:42;;;;;;;4.60;2.80;;;18.40;99.90;;;;;;5092546;28;21069;-79
2021/08/07 05:19:09;;;;;;;8.30;2.70;;;18.40;99.90;;;;;;5099067;28;20464;-81
2021/08/07 05:21:36;;;;;;;10.30;2.73;;;18.50;99.90;;;;;;5093838;28;20461;-81
2021/08/07 05:24:03;;;;;;;6.53;2.77;;;18.50;99.90;;;;;;5098839;28;20496;-79
2021/08/07 05:26:32;;;;;;;10.40;2.80;;;18.50;99.90;;;;;;5094780;28;20798;-80
2021/08/07 05:28:59;;;;;;;2.60;2.23;;;18.50;99.90;;;;;;5090867;28;20457;-80
2021/08/07 05:31:26;;;;;;;6.20;2.63;;;18.50;99.90;;;;;;5094134;28;20457;-82
2021/08/07 05:33:53;;;;;;;4.90;2.67;;;18.50;99.90;;;;;;5099576;28;20457;-80
2021/08/07 05:36:44;;;;;;;6.90;2.47;;;18.50;99.90;;;;;;5098545;28;20456;-79
2021/08/07 05:39:11;;;;;;;4.70;2.23;;;18.50;99.90;;;;;;5099228;28;20526;-79
2021/08/07 05:41:40;;;;;;;11.50;2.90;;;18.50;99.90;;;;;;5093991;28;20903;-82
2021/08/07 05:44:07;;;;;;;7.00;3.07;;;18.60;99.90;;;;;;5093462;28;20485;-79
2021/08/07 05:46:34;;;;;;;3.27;2.43;;;18.60;99.90;;;;;;5097332;28;20483;-80
2021/08/07 05:49:01;;;;;;;7.17;2.93;;;18.60;99.90;;;;;;5100475;28;20469;-83
2021/08/07 05:51:32;;;;;;;6.10;2.60;;;18.60;99.90;;;;;;5096266;28;20917;-79
2021/08/07 05:54:00;;;;;;;7.97;2.80;;;18.60;99.90;;;;;;5091933;28;20468;-80
2021/08/07 05:56:27;;;;;;;5.57;2.80;;;18.60;99.90;;;;;;5096500;28;20472;-80
2021/08/07 05:58:57;;;;;;;5.63;2.37;;;18.70;99.90;;;;;;5098692;28;20819;-80
2021/08/07 06:01:25;;;;;;;7.90;2.63;;;18.70;99.90;;;;;;5101758;27;20504;-79
2021/08/07 06:03:52;;;;;;;6.80;2.90;;;18.70;99.90;;;;;;5098008;28;20492;-80
2021/08/07 06:06:19;;;;;;;2.83;2.50;;;18.70;99.90;;;;;;5087213;28;20454;-79
2021/08/07 06:08:46;;;;;;;5.67;2.43;;;18.80;99.90;;;;;;5098548;28;20460;-82
2021/08/07 06:11:13;;;;;;;6.17;2.40;;;18.80;99.90;;;;;;5097851;28;21021;-79
2021/08/07 06:13:40;;;;;;;5.83;3.03;;;18.80;99.90;;;;;;5095942;28;20465;-80
2021/08/07 06:16:08;;;;;;;8.70;3.07;;;18.80;99.90;;;;;;5099802;28;20937;-82
2021/08/07 06:18:35;;;;;;;3.00;2.70;;;18.90;99.90;;;;;;5094354;28;20561;-81
2021/08/07 06:21:02;;;;;;;5.20;2.77;;;18.90;99.90;;;;;;5087585;28;20932;-81
2021/08/07 06:23:30;;;;;;;5.00;3.00;;;18.90;99.90;;;;;;5099175;28;20499;-80
2021/08/07 06:25:56;;;;;;;2.30;2.10;;;18.90;99.90;;;;;;5099211;28;20463;-80
2021/08/07 06:28:23;;;;;;;3.77;1.80;;;19.00;99.90;;;;;;5098677;28;20549;-81
2021/08/07 06:30:50;;;;;;;2.70;2.43;;;19.00;99.90;;;;;;5100825;28;20547;-79
2021/08/07 06:33:19;;;;;;;3.40;1.97;;;19.00;99.90;;;;;;5095571;28;20815;-80
2021/08/07 06:35:46;;;;;;;6.43;2.83;;;19.10;99.90;;;;;;5093836;28;20961;-83
2021/08/07 06:38:13;;;;;;;5.03;2.50;;;19.10;99.90;;;;;;5094726;28;20467;-80
2021/08/07 06:40:40;;;;;;;7.03;2.40;;;19.10;99.90;;;;;;5096698;28;20506;-80
2021/08/07 06:43:07;;;;;;;9.33;3.00;;;19.20;99.90;;;;;;5096300;28;20642;-80
2021/08/07 06:45:34;;;;;;;6.13;3.23;;;19.20;99.90;;;;;;5094587;28;21211;-82
2021/08/07 06:48:01;;;;;;;6.47;2.20;;;19.20;99.90;;;;;;5096525;28;20453;-82
2021/08/07 06:50:30;;;;;;;5.07;2.20;;;19.30;99.90;;;;;;5099393;28;20512;-80
2021/08/07 06:52:57;;;;;;;3.63;2.50;;;19.30;99.90;;;;;;5095955;28;20471;-80
2021/08/07 06:55:25;;;;;;;15.50;2.83;;;19.30;99.90;;;;;;5096496;28;20453;-83
2021/08/07 06:57:52;;;;;;;8.77;2.53;;;19.30;99.90;;;;;;5099494;28;20464;-80
2021/08/07 07:00:19;;;;;;;7.03;2.70;;;19.40;99.90;;;;;;5101058;28;20446;-81
2021/08/07 07:02:46;;;;;;;12.20;2.83;;;19.40;99.90;;;;;;5089645;28;20485;-80
2021/08/07 07:05:14;;;;;;;6.97;2.50;;;19.50;99.90;;;;;;5095820;28;20844;-82
2021/08/07 07:07:42;;;;;;;7.83;2.50;;;19.50;99.90;;;;;;5089874;28;20460;-81
2021/08/07 07:10:11;;;;;;;3.20;2.43;;;19.50;99.90;;;;;;5098738;28;20469;-82
2021/08/07 07:12:39;;;;;;;6.97;2.63;;;19.60;99.90;;;;;;5089385;28;20779;-81
2021/08/07 07:15:07;;;;;;;7.73;3.77;;;19.60;99.90;;;;;;5097450;28;20461;-81
2021/08/07 07:17:36;;;;;;;5.10;2.27;;;19.60;99.90;;;;;;5094087;28;20452;-82
2021/08/07 07:20:03;;;;;;;12.03;2.97;;;19.60;99.90;;;;;;5096546;28;20561;-81
2021/08/07 07:22:30;;;;;;;5.13;2.43;;;19.70;99.90;;;;;;5095862;28;20496;-82
2021/08/07 07:24:58;;;;;;;9.17;2.63;;;19.70;99.90;;;;;;5097150;28;20981;-80
2021/08/07 07:27:25;;;;;;;3.47;2.30;;;19.80;99.90;;;;;;5095793;28;20545;-80
2021/08/07 07:29:51;;;;;;;5.17;2.63;;;19.80;99.90;;;;;;5099533;28;20449;-83
2021/08/07 07:32:18;;;;;;;4.43;2.30;;;19.80;99.90;;;;;;5094622;28;20468;-80
2021/08/07 07:34:45;;;;;;;4.40;2.63;;;19.90;99.90;;;;;;5093450;28;20484;-80
2021/08/07 07:37:12;;;;;;;5.80;2.10;;;19.90;99.90;;;;;;5097774;28;20461;-80
2021/08/07 07:39:39;;;;;;;4.93;2.30;;;19.90;99.90;;;;;;5093878;28;20479;-81
2021/08/07 07:42:07;;;;;;;4.13;2.40;;;20.00;99.90;;;;;;5092435;28;20456;-82
2021/08/07 07:44:34;;;;;;;6.70;2.90;;;20.00;99.90;;;;;;5089302;28;20486;-83
2021/08/07 07:47:01;;;;;;;3.90;2.67;;;20.10;99.90;;;;;;5100942;28;20937;-80
2021/08/07 07:49:28;;;;;;;3.43;2.80;;;20.10;99.90;;;;;;5101664;28;20465;-81
2021/08/07 07:51:55;;;;;;;2.90;2.67;;;20.10;99.90;;;;;;5102212;28;20461;-81
2021/08/07 07:54:22;;;;;;;4.60;2.73;;;20.20;99.90;;;;;;5093945;28;20452;-80
2021/08/07 07:56:48;;;;;;;3.13;2.23;;;20.20;99.90;;;;;;5099961;28;20457;-82
2021/08/07 07:59:17;;;;;;;5.90;1.83;;;20.20;99.90;;;;;;5099810;28;20461;-80
2021/08/07 08:01:44;;;;;;;2.67;2.03;;;20.30;99.90;;;;;;5096072;28;20450;-81
2021/08/07 08:04:10;;;;;;;2.37;2.17;;;20.30;99.90;;;;;;5102834;28;20834;-80
2021/08/07 08:06:37;;;;;;;2.67;2.47;;;20.30;99.90;;;;;;5098217;28;20457;-80
2021/08/07 08:09:04;;;;;;;3.07;2.40;;;20.40;99.90;;;;;;5095786;28;20808;-80
2021/08/07 08:11:31;;;;;;;4.37;2.40;;;20.40;99.90;;;;;;5099728;28;20457;-81
2021/08/07 08:14:00;;;;;;;3.80;2.63;;;20.40;99.90;;;;;;5096981;28;20545;-80
2021/08/07 08:16:29;;;;;;;2.90;1.73;;;20.40;99.90;;;;;;5105373;28;20469;-80
2021/08/07 08:18:55;;;;;;;4.33;2.00;;;20.50;99.90;;;;;;5095792;28;20961;-80
2021/08/07 08:21:22;;;;;;;3.37;1.97;;;20.50;99.90;;;;;;5099484;28;20461;-82
2021/08/07 08:23:49;;;;;;;4.10;1.90;;;20.50;99.90;;;;;;5094781;28;20564;-81
2021/08/07 08:26:16;;;;;;;4.77;1.80;;;20.60;99.90;;;;;;5098546;28;20507;-81
2021/08/07 08:28:43;;;;;;;4.30;2.10;;;20.60;99.90;;;;;;5094481;28;21271;-81
2021/08/07 08:31:10;;;;;;;5.00;2.53;;;20.60;99.90;;;;;;5104904;28;20457;-80
2021/08/07 08:33:38;;;;;;;4.30;1.87;;;20.70;99.90;;;;;;5094609;28;20546;-80
2021/08/07 08:36:06;;;;;;;1.87;1.50;;;20.70;99.90;;;;;;5093178;28;20525;-82
2021/08/07 08:38:33;;;;;;;7.33;2.37;;;20.70;99.90;;;;;;5089830;28;20516;-80
2021/08/07 08:41:00;;;;;;;5.90;2.27;;;20.80;99.90;;;;;;5096901;28;20462;-82
2021/08/07 08:43:28;;;;;;;3.13;2.30;;;20.80;99.90;;;;;;5098119;28;20520;-81
2021/08/07 08:45:56;;;;;;;5.93;2.23;;;20.80;99.90;;;;;;5098808;28;20501;-80
2021/08/07 08:48:23;;;;;;;6.10;1.90;;;20.90;99.90;;;;;;5097543;28;20465;-80
2021/08/07 08:50:53;;;;;;;3.70;2.27;;;20.90;99.90;;;;;;5096638;28;20461;-82
2021/08/07 08:53:20;;;;;;;5.33;1.93;;;21.00;99.90;;;;;;5094399;28;20464;-84
2021/08/07 08:55:48;;;;;;;6.60;2.23;;;21.00;99.90;;;;;;5092209;28;20472;-80
2021/08/07 08:58:16;;;;;;;11.97;2.53;;;21.00;99.90;;;;;;5098401;28;20445;-80
2021/08/07 09:00:43;;;;;;;2.40;2.20;;;21.00;99.90;;;;;;5101267;27;21013;-81
2021/08/07 09:03:10;;;;;;;6.07;1.90;;;21.10;99.90;;;;;;5092408;28;20488;-80
2021/08/07 09:05:37;;;;;;;5.30;2.00;;;21.10;99.90;;;;;;5094580;28;20480;-80
2021/08/07 09:08:05;;;;;;;4.00;2.10;;;21.10;99.90;;;;;;5094850;28;20947;-80
2021/08/07 09:10:34;;;;;;;6.27;2.50;;;21.20;99.90;;;;;;5103217;28;20956;-80
2021/08/07 09:13:03;;;;;;;3.87;2.40;;;21.20;99.90;;;;;;5088283;28;20457;-80
2021/08/07 09:15:41;;;;;;;6.20;2.33;;;21.20;99.90;;;;;;5096783;28;20462;-80
2021/08/07 09:18:21;;;;;;;2.47;2.27;;;21.30;99.90;;;;;;5093364;28;20465;-80
2021/08/07 09:20:50;;;;;;;8.03;2.93;;;21.30;99.90;;;;;;5088459;28;20458;-81
2021/08/07 09:23:30;;;;;;;5.47;1.93;;;21.30;99.90;;;;;;5090975;28;20463;-81
2021/08/07 09:25:57;;;;;;;11.50;3.10;;;21.40;99.90;;;;;;5098613;28;20512;-80
2021/08/07 09:28:44;;;;;;;6.53;2.90;;;21.40;99.90;;;;;;5095092;28;20975;-81
2021/08/07 09:31:11;;;;;;;4.50;2.60;;;21.40;99.90;;;;;;5100254;28;20457;-80
2021/08/07 09:33:39;;;;;;;4.43;2.13;;;21.50;99.90;;;;;;5096091;28;20474;-82
2021/08/07 09:36:06;;;;;;;3.20;2.37;;;21.50;99.90;;;;;;5090432;28;20473;-82
2021/08/07 09:38:45;;;;;;;4.40;2.57;;;21.50;99.90;;;;;;5094928;28;20458;-80
2021/08/07 09:41:12;;;;;;;3.13;1.80;;;21.60;99.90;;;;;;5100060;28;20457;-80
2021/08/07 09:43:45;;;;;;;4.87;2.33;;;21.60;99.90;;;;;;5097757;28;20932;-81
2021/08/07 09:46:14;;;;;;;10.90;2.90;;;21.70;99.90;;;;;;5097282;28;20514;-80
2021/08/07 09:48:43;;;;;;;4.57;2.17;;;21.70;99.90;;;;;;5096295;28;20487;-81
2021/08/07 09:51:18;;;;;;;6.60;2.20;;;21.80;99.90;;;;;;5095008;28;20457;-79
2021/08/07 09:54:01;;;;;;;4.90;2.20;;;21.80;99.90;;;;;;5093495;28;20461;-84
2021/08/07 09:56:28;;;;;;;7.10;3.20;;;21.90;99.90;;;;;;5095231;28;20987;-84
2021/08/07 09:59:06;;;;;;;3.83;2.40;;;21.90;99.90;;;;;;5099362;28;20457;-80
2021/08/07 10:01:35;;;;;;;4.70;2.60;;;22.00;99.90;;;;;;5099848;27;20472;-79
2021/08/07 10:04:05;;;;;;;10.30;2.83;;;22.00;99.90;;;;;;5093899;28;20487;-81
2021/08/07 10:06:32;;;;;;;6.33;3.30;;;22.00;99.90;;;;;;5089725;28;20454;-80
2021/08/07 10:09:01;;;;;;;6.93;2.50;;;22.00;99.90;;;;;;5097619;28;20457;-80
2021/08/07 10:11:29;;;;;;;3.97;2.43;;;22.00;99.90;;;;;;5092851;28;20540;-80
2021/08/07 10:13:56;;;;;;;7.50;2.30;;;22.00;99.90;;;;;;5089452;28;20454;-80
2021/08/07 10:16:23;;;;;;;3.87;2.03;;;22.00;99.90;;;;;;5089975;28;20460;-80
2021/08/07 10:18:52;;;;;;;3.27;1.93;;;22.10;99.90;;;;;;5090308;28;20564;-81
2021/08/07 10:21:20;;;;;;;6.90;2.30;;;22.10;99.90;;;;;;5094910;28;20928;-80
2021/08/07 10:23:47;;;;;;;2.43;1.80;;;22.10;99.90;;;;;;5096745;28;20548;-80
2021/08/07 10:26:20;;;;;;;2.40;1.83;;;22.20;99.90;;;;;;5090475;28;20520;-80
2021/08/07 10:28:48;;;;;;;8.33;2.30;;;22.30;99.90;;;;;;5096409;28;20473;-80
2021/08/07 10:31:21;;;;;;;4.97;2.07;;;22.30;99.90;;;;;;5088978;28;20492;-80
2021/08/07 10:33:50;;;;;;;3.27;1.93;;;22.40;99.90;;;;;;5097578;28;20476;-80
2021/08/07 10:36:18;;;;;;;3.00;1.70;;;22.40;99.90;;;;;;5093759;28;20547;-82
2021/08/07 10:38:47;;;;;;;2.70;1.77;;;22.50;99.90;;;;;;5091819;28;20457;-80
2021/08/07 10:41:15;;;;;;;2.40;1.77;;;22.50;99.90;;;;;;5092632;28;20458;-80
2021/08/07 10:43:43;;;;;;;3.73;2.27;;;22.50;99.90;;;;;;5096095;28;21047;-80
2021/08/07 10:46:11;;;;;;;5.90;2.40;;;22.50;99.90;;;;;;5095008;28;20538;-80
2021/08/07 10:48:41;;;;;;;3.80;2.07;;;22.50;99.90;;;;;;5100015;28;20458;-80
2021/08/07 10:51:30;;;;;;;4.60;1.97;;;22.50;99.90;;;;;;5094359;28;20461;-80
2021/08/07 10:53:59;;;;;;;2.90;2.07;;;22.50;99.90;;;;;;5090730;28;20461;-80
2021/08/07 10:56:40;;;;;;;4.10;2.50;;;22.60;99.90;;;;;;5094065;28;20924;-80
2021/08/07 10:59:24;;;;;;;2.20;1.67;;;22.60;99.90;;;;;;5096227;28;20564;-80
2021/08/07 11:01:52;;;;;;;5.50;2.10;;;22.60;99.90;;;;;;5097097;28;20458;-81
2021/08/07 11:04:30;;;;;;;3.70;1.97;;;22.70;99.90;;;;;;5102621;28;20820;-82
2021/08/07 11:07:17;;;;;;;2.23;1.67;;;22.70;99.90;;;;;;5086661;28;20465;-80
2021/08/07 11:16:50;;;;;;;1.87;1.77;;;22.80;99.90;;;;;;5067404;28;20583;-80
2021/08/07 11:19:55;;;;;;;3.43;2.00;;;22.90;99.90;;;;;;5092785;28;20499;-81
2021/08/07 11:26:06;;;;;;;5.40;2.10;;;22.80;99.90;;;;;;5091791;28;21222;-81
2021/08/07 11:28:54;;;;;;;3.30;1.70;;;22.80;99.90;;;;;;5098651;28;20532;-80
2021/08/07 11:31:22;;;;;;;3.60;1.93;;;22.80;99.90;;;;;;5088380;28;20461;-79
2021/08/07 11:34:24;;;;;;;2.60;2.40;;;22.70;99.90;;;;;;5092047;28;20464;-80
2021/08/07 11:37:19;;;;;;;4.37;1.80;;;22.80;99.90;;;;;;5062935;28;20460;-80
2021/08/07 11:40:05;;;;;;;2.50;2.10;;;22.80;99.90;;;;;;5091246;28;20584;-80
2021/08/07 11:42:38;;;;;;;5.10;2.10;;;22.80;99.90;;;;;;5097716;28;20456;-81
2021/08/07 11:45:06;;;;;;;2.60;1.73;;;22.90;99.90;;;;;;5100156;28;20489;-80
2021/08/07 11:47:33;;;;;;;5.10;3.80;;;22.90;99.90;;;;;;5097538;28;20465;-80
2021/08/07 11:50:05;;;;;;;2.87;1.77;;;22.90;99.90;;;;;;5096913;28;20457;-80
2021/08/07 11:52:34;;;;;;;3.93;2.07;;;22.80;99.90;;;;;;5098139;28;20459;-79
2021/08/07 11:55:03;;;;;;;2.93;1.77;;;22.90;99.90;;;;;;5097117;28;20454;-81
2021/08/07 11:57:30;;;;;;;4.13;2.03;;;22.90;99.90;;;;;;5088285;28;20472;-80
2021/08/07 12:00:18;;;;;;;3.33;2.30;;;22.90;99.90;;;;;;5098176;27;20464;-79
2021/08/07 12:02:58;;;;;;;6.13;1.90;;;22.90;99.90;;;;;;5095825;28;20487;-80
2021/08/07 12:05:26;;;;;;;2.90;1.80;;;22.90;99.90;;;;;;5094043;28;20488;-80
2021/08/07 12:08:06;;;;;;;2.30;1.80;;;22.90;99.90;;;;;;5091719;28;20551;-80
2021/08/07 12:10:35;;;;;;;3.17;2.13;;;23.00;99.90;;;;;;5089966;28;20538;-80
2021/08/07 12:13:02;;;;;;;4.37;2.47;;;23.00;99.90;;;;;;5084651;28;20450;-80
2021/08/07 12:15:29;;;;;;;4.07;2.90;;;23.10;99.90;;;;;;5096693;28;20461;-81
2021/08/07 12:17:59;;;;;;;2.33;2.00;;;23.20;99.90;;;;;;5092751;28;20469;-81
2021/08/07 12:20:26;;;;;;;17.70;5.10;;;23.20;99.90;;;;;;5090560;28;20464;-80
2021/08/07 12:22:59;;;;;;;5.50;3.30;;;23.20;99.90;;;;;;5092089;28;20453;-81
2021/08/07 12:25:28;;;;;;;2.57;1.97;;;23.20;99.90;;;;;;5098970;28;20494;-81
2021/08/07 12:28:14;;;;;;;2.40;2.17;;;23.30;99.90;;;;;;5100632;28;20469;-80
2021/08/07 12:31:01;;;;;;;6.63;3.27;;;23.30;99.90;;;;;;5101636;28;20560;-81
2021/08/07 12:33:30;;;;;;;3.03;2.07;;;23.50;99.90;;;;;;5099514;28;20459;-80
2021/08/07 12:35:57;;;;;;;4.73;2.97;;;23.50;99.90;;;;;;5095161;28;20952;-80
2021/08/07 12:38:25;;;;;;;3.03;2.60;;;23.60;99.90;;;;;;5099387;28;20518;-80
2021/08/07 12:40:56;;;;;;;3.30;2.60;;;23.70;99.90;;;;;;5098948;28;20461;-80
2021/08/07 12:43:28;;;;;;;9.80;6.00;;;23.70;99.90;;;;;;5099938;28;21287;-80
2021/08/07 12:46:00;;;;;;;3.90;2.73;;;23.70;99.90;;;;;;5094608;28;20484;-80
2021/08/07 12:48:28;;;;;;;3.43;2.20;;;23.70;99.90;;;;;;5098607;28;20534;-80
2021/08/07 12:51:02;;;;;;;2.40;2.03;;;23.70;99.90;;;;;;5097050;28;20457;-80
2021/08/07 12:53:44;;;;;;;2.83;1.60;;;23.80;99.90;;;;;;5096590;28;20456;-81
2021/08/07 12:56:12;;;;;;;6.10;4.00;;;23.80;99.90;;;;;;5093580;28;20473;-80
2021/08/07 12:58:39;;;;;;;4.47;2.93;;;23.90;99.90;;;;;;5091218;28;20977;-80
2021/08/07 13:01:11;;;;;;;2.90;2.00;;;23.90;99.90;;;;;;5098187;28;20453;-80
2021/08/07 13:03:58;;;;;;;2.03;1.50;;;24.00;99.90;;;;;;5100293;28;20472;-80
2021/08/07 13:06:26;;;;;;;8.50;4.90;;;24.00;99.90;;;;;;5097693;28;20992;-80
2021/08/07 13:08:53;;;;;;;5.90;3.40;;;24.00;99.90;;;;;;5093855;28;20489;-80